Time;durP1;ratioP1;P1;durP2;ratioP2;P2;SDS_P1;SDS_P2;PMS_P1;PMS_P2;Temp;Humidity;BMP_temperature;BMP_pressure;BME280_temperature;BME280_humidity;BME280_pressure;Samples;Min_cycle;Max_cycle;Signal;HPM_P1;HPM_P2
2022/11/30 00:00:35;;;;;;;34.60;16.77;;;;;;;6.67;100.00;102155.41;5055374;28;20032;-71
2022/11/30 00:03:02;;;;;;;43.30;20.05;;;;;;;6.72;100.00;102164.63;5053863;28;20116;-71
2022/11/30 00:05:27;;;;;;;39.85;15.63;;;;;;;6.72;100.00;102163.78;5055503;28;20033;-71
2022/11/30 00:07:55;;;;;;;37.88;16.33;;;;;;;6.67;100.00;102160.72;5055290;28;20037;-71
2022/11/30 00:10:21;;;;;;;38.05;14.43;;;;;;;6.71;100.00;102173.56;5055382;28;20033;-71
2022/11/30 00:12:47;;;;;;;33.10;14.45;;;;;;;6.72;100.00;102171.75;5054579;28;20079;-71
2022/11/30 00:15:15;;;;;;;36.67;16.92;;;;;;;6.70;100.00;102182.47;5051513;28;20037;-71
2022/11/30 00:17:41;;;;;;;33.90;14.70;;;;;;;6.72;100.00;102171.75;5052242;28;20108;-71
2022/11/30 00:20:08;;;;;;;32.35;14.15;;;;;;;6.72;100.00;102171.75;5052192;28;20123;-72
2022/11/30 00:22:34;;;;;;;29.15;12.32;;;;;;;6.70;100.00;102165.72;5051957;28;20480;-71
2022/11/30 00:25:01;;;;;;;29.02;13.18;;;;;;;6.68;100.00;102173.84;5052154;28;20091;-71
2022/11/30 00:27:27;;;;;;;27.35;12.32;;;;;;;6.72;100.00;102177.03;5052069;28;20522;-71
2022/11/30 00:29:52;;;;;;;29.42;13.75;;;;;;;6.70;100.00;102163.91;5051963;28;20029;-71
2022/11/30 00:32:18;;;;;;;26.50;11.80;;;;;;;6.72;100.00;102166.44;5051883;28;20677;-71
2022/11/30 00:34:43;;;;;;;27.00;12.10;;;;;;;6.70;100.00;102163.09;5051781;28;20059;-71
2022/11/30 00:37:08;;;;;;;26.60;12.40;;;;;;;6.71;100.00;102164.78;5051733;28;20056;-71
2022/11/30 00:39:34;;;;;;;24.95;12.50;;;;;;;6.71;100.00;102167.44;5049594;28;20036;-71
2022/11/30 00:41:59;;;;;;;26.67;12.00;;;;;;;6.69;100.00;102159.59;5051688;28;20115;-72
2022/11/30 00:44:24;;;;;;;25.60;10.05;;;;;;;6.70;100.00;102166.56;5051686;28;20082;-71
2022/11/30 00:46:50;;;;;;;25.58;12.70;;;;;;;6.65;100.00;102163.50;5051653;28;20033;-71
2022/11/30 00:49:15;;;;;;;25.17;11.02;;;;;;;6.67;100.00;102169.50;5051636;28;20036;-71
2022/11/30 00:51:40;;;;;;;25.80;11.13;;;;;;;6.58;100.00;102152.63;5051694;28;20037;-71
2022/11/30 00:54:06;;;;;;;26.50;12.68;;;;;;;6.67;100.00;102176.63;5051594;28;20044;-71
2022/11/30 00:56:31;;;;;;;26.38;12.15;;;;;;;6.68;100.00;102168.53;5051567;28;20057;-71
2022/11/30 00:58:56;;;;;;;22.90;10.68;;;;;;;6.64;100.00;102161.00;5051364;28;20102;-71
2022/11/30 01:01:22;;;;;;;23.73;11.20;;;;;;;6.66;100.00;102170.50;5051393;28;20029;-71
2022/11/30 01:03:47;;;;;;;27.95;13.15;;;;;;;6.67;100.00;102171.31;5051073;28;20481;-71
2022/11/30 01:06:12;;;;;;;26.42;13.18;;;;;;;6.65;100.00;102173.25;5051345;28;20047;-71
2022/11/30 01:08:38;;;;;;;23.55;12.25;;;;;;;6.63;100.00;102180.50;5051125;28;20492;-71
2022/11/30 01:11:21;;;;;;;23.33;11.05;;;;;;;6.61;100.00;102179.84;5051247;28;20139;-71
2022/11/30 01:13:46;;;;;;;29.45;11.60;;;;;;;6.60;100.00;102184.28;5051340;28;20033;-71
2022/11/30 01:16:15;;;;;;;24.13;10.02;;;;;;;6.61;100.00;102179.84;5051308;28;20075;-71
2022/11/30 01:18:41;;;;;;;27.05;12.15;;;;;;;6.59;100.00;102183.44;5051268;28;20036;-71
2022/11/30 01:21:09;;;;;;;22.60;12.57;;;;;;;6.59;100.00;102183.44;5051187;28;20360;-71
2022/11/30 01:23:34;;;;;;;22.83;10.65;;;;;;;6.62;100.00;102189.44;5050849;28;20052;-71
2022/11/30 01:26:00;;;;;;;25.63;11.30;;;;;;;6.63;100.00;102191.97;5050725;28;20033;-71
2022/11/30 01:28:25;;;;;;;28.20;11.55;;;;;;;6.61;100.00;102185.13;5050907;28;20029;-71
2022/11/30 01:31:02;;;;;;;24.45;11.75;;;;;;;6.64;100.00;102190.16;5050977;28;20028;-71
2022/11/30 01:33:27;;;;;;;26.95;11.88;;;;;;;6.63;100.00;102188.47;5050780;28;20976;-71
2022/11/30 01:36:05;;;;;;;22.98;10.93;;;;;;;6.65;100.00;102194.47;5050865;28;20040;-71
2022/11/30 01:38:40;;;;;;;22.30;10.85;;;;;;;6.58;100.00;102179.13;5049289;28;20043;-71
2022/11/30 01:41:06;;;;;;;24.05;11.52;;;;;;;6.62;100.00;102189.44;5049200;28;20039;-71
2022/11/30 01:43:39;;;;;;;25.80;13.43;;;;;;;6.63;100.00;102191.97;5049372;28;20082;-71
2022/11/30 01:46:17;;;;;;;24.10;11.60;;;;;;;6.61;100.00;102193.09;5052817;28;20039;-71
2022/11/30 01:48:43;;;;;;;24.58;11.73;;;;;;;6.64;100.00;102195.47;5051249;28;20044;-71
2022/11/30 01:51:08;;;;;;;25.23;12.07;;;;;;;6.64;100.00;102196.28;5050510;28;20029;-71
2022/11/30 01:53:34;;;;;;;26.80;11.52;;;;;;;6.63;100.00;102196.41;5050565;28;20583;-71
2022/11/30 01:55:59;;;;;;;25.52;11.45;;;;;;;6.61;100.00;102199.22;5050370;28;20029;-71
2022/11/30 01:58:28;;;;;;;24.15;10.25;;;;;;;6.62;100.00;102208.00;5050290;28;20036;-71
2022/11/30 02:00:54;;;;;;;24.08;10.60;;;;;;;6.61;100.00;102215.13;5050165;28;20044;-71
2022/11/30 02:03:54;;;;;;;27.13;11.02;;;;;;;6.58;100.00;102210.94;5050374;28;20029;-71
2022/11/30 02:06:22;;;;;;;23.70;11.20;;;;;;;6.56;100.00;102210.22;5050206;28;20020;-71
2022/11/30 02:08:48;;;;;;;24.63;10.52;;;;;;;6.58;100.00;102212.75;5048819;28;20033;-71
2022/11/30 02:11:14;;;;;;;23.88;11.57;;;;;;;6.59;100.00;102209.13;5050120;28;20028;-71
2022/11/30 02:14:05;;;;;;;21.48;9.70;;;;;;;6.59;100.00;102209.94;5048897;28;20032;-71
2022/11/30 02:16:52;;;;;;;25.42;11.75;;;;;;;6.59;100.00;102212.59;5050115;28;20472;-71
2022/11/30 02:19:26;;;;;;;23.08;12.32;;;;;;;6.58;100.00;102218.88;5049911;28;20468;-71
2022/11/30 02:22:18;;;;;;;23.55;11.02;;;;;;;6.62;100.00;102218.59;5049881;28;20116;-71
2022/11/30 02:24:55;;;;;;;25.92;11.32;;;;;;;6.58;100.00;102212.75;5049311;28;20052;-71
2022/11/30 02:27:38;;;;;;;25.08;10.95;;;;;;;6.57;100.00;102211.06;5049819;28;20115;-71
2022/11/30 02:30:08;;;;;;;25.10;10.15;;;;;;;6.56;100.00;102210.22;5049824;28;20492;-71
2022/11/30 02:32:43;;;;;;;23.80;12.93;;;;;;;6.55;100.00;102215.69;5049776;28;20052;-71
2022/11/30 02:35:10;;;;;;;25.70;11.63;;;;;;;6.49;100.00;102206.44;5049856;28;20045;-71
2022/11/30 02:37:37;;;;;;;26.13;12.80;;;;;;;6.51;100.00;102208.97;5049182;28;20048;-71
2022/11/30 02:40:12;;;;;;;23.38;10.80;;;;;;;6.52;100.00;102211.50;5049724;28;20033;-71
2022/11/30 02:42:37;;;;;;;26.05;12.80;;;;;;;6.50;100.00;102205.47;5049716;28;20028;-71
2022/11/30 02:45:06;;;;;;;25.70;12.50;;;;;;;6.52;100.00;102213.28;5049640;28;20036;-71
2022/11/30 02:47:40;;;;;;;28.88;11.88;;;;;;;6.51;100.00;102214.25;5049567;28;20087;-71
2022/11/30 02:50:21;;;;;;;24.90;11.40;;;;;;;6.42;100.00;102213.28;5049428;28;20032;-71
2022/11/30 02:52:49;;;;;;;22.23;11.25;;;;;;;6.45;100.00;102218.31;5049511;28;20135;-71
2022/11/30 02:55:17;;;;;;;21.23;10.93;;;;;;;6.44;100.00;102221.06;5049451;28;20027;-71
2022/11/30 02:57:42;;;;;;;23.23;10.73;;;;;;;6.44;100.00;102216.59;5049427;28;20029;-71
2022/11/30 03:00:12;;;;;;;25.33;11.05;;;;;;;6.43;100.00;102219.41;5049432;28;20032;-71
2022/11/30 03:02:38;;;;;;;25.98;12.52;;;;;;;6.37;100.00;102210.19;5049348;28;20040;-71
2022/11/30 03:05:04;;;;;;;22.65;9.80;;;;;;;6.44;100.00;102221.91;5049379;28;20029;-71
2022/11/30 03:07:29;;;;;;;21.98;12.45;;;;;;;6.47;100.00;102213.72;5049228;28;20511;-71
2022/11/30 03:09:55;;;;;;;26.98;12.57;;;;;;;6.45;100.00;102220.94;5049410;28;20033;-71
2022/11/30 03:12:21;;;;;;;22.42;10.50;;;;;;;6.44;100.00;102219.25;5049428;28;20555;-71
2022/11/30 03:14:46;;;;;;;23.42;11.77;;;;;;;6.44;100.00;102216.59;5049379;28;20036;-71
2022/11/30 03:17:11;;;;;;;26.80;13.63;;;;;;;6.41;100.00;102214.22;5049320;28;20108;-71
2022/11/30 03:19:37;;;;;;;25.42;11.48;;;;;;;6.41;100.00;102214.22;5049246;28;20033;-71
2022/11/30 03:22:03;;;;;;;22.38;10.35;;;;;;;6.38;100.00;102209.22;5049123;28;20025;-71
2022/11/30 03:24:28;;;;;;;21.95;10.48;;;;;;;6.42;100.00;102218.56;5047760;28;20139;-71
2022/11/30 03:26:53;;;;;;;26.52;11.77;;;;;;;6.40;100.00;102215.22;5049088;28;20045;-71
2022/11/30 03:29:19;;;;;;;24.88;11.25;;;;;;;6.39;100.00;102204.75;5049351;28;20128;-71
2022/11/30 03:31:44;;;;;;;23.95;11.65;;;;;;;6.38;100.00;102216.34;5049213;28;20033;-71
2022/11/30 03:34:09;;;;;;;24.52;12.02;;;;;;;6.36;100.00;102217.28;5031428;28;20665;-71
2022/11/30 03:36:35;;;;;;;22.20;11.30;;;;;;;6.33;100.00;102217.56;5047876;28;20094;-71
2022/11/30 03:39:01;;;;;;;21.90;10.98;;;;;;;6.34;100.00;102221.03;5049423;28;20032;-71
2022/11/30 03:41:27;;;;;;;20.45;10.85;;;;;;;6.27;100.00;102212.81;5049009;28;20087;-71
2022/11/30 03:43:52;;;;;;;21.77;9.88;;;;;;;6.26;100.00;102213.78;5047830;28;20032;-71
2022/11/30 03:46:18;;;;;;;21.25;10.07;;;;;;;6.26;100.00;102215.59;5048999;28;20071;-69
2022/11/30 03:48:43;;;;;;;23.80;10.75;;;;;;;6.27;100.00;102225.22;5051147;28;20029;-71
2022/11/30 03:51:10;;;;;;;23.02;9.85;;;;;;;6.24;100.00;102228.97;5052813;28;20037;-71
2022/11/30 03:53:36;;;;;;;21.60;10.30;;;;;;;6.25;100.00;102224.50;5052756;28;20060;-70
2022/11/30 03:56:04;;;;;;;22.10;10.93;;;;;;;6.22;100.00;102222.97;5052770;28;20116;-69
2022/11/30 03:58:30;;;;;;;21.00;9.65;;;;;;;6.17;100.00;102221.69;5052660;28;20044;-70
2022/11/30 04:00:59;;;;;;;22.15;10.95;;;;;;;6.15;100.00;102224.47;5052637;28;20025;-70
2022/11/30 04:03:24;;;;;;;21.75;10.20;;;;;;;6.18;100.00;102232.16;5052535;28;20131;-70
2022/11/30 04:05:50;;;;;;;22.83;10.75;;;;;;;6.19;100.00;102231.19;5053290;28;20071;-70
2022/11/30 04:08:15;;;;;;;21.10;10.40;;;;;;;6.19;100.00;102231.19;5035920;28;20072;-69
2022/11/30 04:10:40;;;;;;;21.75;10.15;;;;;;;6.21;100.00;102233.69;5052535;28;20105;-69
2022/11/30 04:13:06;;;;;;;23.20;11.15;;;;;;;6.21;100.00;102233.69;5051112;28;20033;-70
2022/11/30 04:15:31;;;;;;;23.27;10.27;;;;;;;6.18;100.00;102223.38;5052414;28;20040;-70
2022/11/30 04:17:56;;;;;;;23.15;10.43;;;;;;;6.19;100.00;102235.66;5052425;28;20111;-71
2022/11/30 04:20:22;;;;;;;21.23;10.05;;;;;;;6.15;100.00;102229.75;5052323;28;20500;-71
2022/11/30 04:22:47;;;;;;;20.58;9.48;;;;;;;6.18;100.00;102233.97;5052054;28;20029;-71
2022/11/30 04:25:12;;;;;;;23.80;10.80;;;;;;;6.18;100.00;102229.50;5052036;28;20599;-71
2022/11/30 04:27:38;;;;;;;22.00;11.70;;;;;;;6.14;100.00;102220.16;5052006;28;20083;-71
2022/11/30 04:30:04;;;;;;;21.77;10.63;;;;;;;6.18;100.00;102232.16;5052128;28;20082;-71
2022/11/30 04:32:30;;;;;;;22.92;10.60;;;;;;;6.18;100.00;102226.00;5050809;28;20028;-71
2022/11/30 04:34:55;;;;;;;28.48;10.95;;;;;;;6.11;100.00;102218.63;5050385;28;20032;-71
2022/11/30 04:37:21;;;;;;;21.80;10.68;;;;;;;6.15;100.00;102229.75;5051433;28;20029;-71
2022/11/30 04:39:46;;;;;;;21.85;10.18;;;;;;;6.14;100.00;102230.75;5051201;28;20397;-71
2022/11/30 04:42:11;;;;;;;25.33;11.85;;;;;;;6.12;100.00;102228.22;5051812;28;20033;-71
2022/11/30 04:44:37;;;;;;;23.20;10.45;;;;;;;6.12;100.00;102228.22;5051808;28;20487;-71
2022/11/30 04:47:02;;;;;;;22.02;10.30;;;;;;;6.06;100.00;102218.16;5051722;28;20422;-71
2022/11/30 04:49:27;;;;;;;21.83;11.27;;;;;;;6.09;100.00;102232.97;5051291;28;20515;-71
2022/11/30 04:51:53;;;;;;;20.90;9.40;;;;;;;6.07;100.00;102226.94;5051528;28;20037;-71
2022/11/30 04:54:18;;;;;;;23.60;10.73;;;;;;;6.08;100.00;102234.78;5051669;28;20082;-71
2022/11/30 04:56:43;;;;;;;24.55;10.55;;;;;;;6.08;100.00;102239.25;5032990;28;20091;-71
2022/11/30 04:59:09;;;;;;;22.33;10.02;;;;;;;6.06;100.00;102233.22;5050985;28;20029;-71
2022/11/30 05:01:34;;;;;;;22.70;11.30;;;;;;;6.05;100.00;102236.84;5051062;28;20055;-71
2022/11/30 05:03:59;;;;;;;22.73;10.85;;;;;;;6.03;100.00;102231.69;5049419;28;20119;-71
2022/11/30 05:06:25;;;;;;;20.65;9.20;;;;;;;6.03;100.00;102231.69;5051250;28;20037;-71
2022/11/30 05:08:51;;;;;;;22.50;9.77;;;;;;;6.02;100.00;102243.22;5051026;28;20515;-71
2022/11/30 05:11:16;;;;;;;23.13;10.70;;;;;;;6.02;100.00;102237.09;5051324;28;20132;-71
2022/11/30 05:13:42;;;;;;;23.27;12.93;;;;;;;5.98;100.00;102227.75;5050424;28;20366;-72
2022/11/30 05:16:09;;;;;;;25.17;12.23;;;;;;;5.98;100.00;102233.88;5050658;28;20078;-72
2022/11/30 05:18:35;;;;;;;22.40;9.63;;;;;;;5.97;100.00;102240.13;5051243;28;20428;-71
2022/11/30 05:21:00;;;;;;;21.80;10.38;;;;;;;5.98;100.00;102252.44;5051112;28;20061;-71
2022/11/30 05:23:25;;;;;;;25.27;10.45;;;;;;;5.96;100.00;102241.13;5050758;28;20147;-72
2022/11/30 05:25:51;;;;;;;22.75;10.18;;;;;;;5.93;100.00;102242.22;5051035;28;20089;-71
2022/11/30 05:28:16;;;;;;;25.77;11.15;;;;;;;5.96;100.00;102249.06;5050937;28;20037;-71
2022/11/30 05:30:42;;;;;;;23.63;11.73;;;;;;;5.95;100.00;102251.84;5050841;28;20413;-69
2022/11/30 05:33:08;;;;;;;25.08;12.38;;;;;;;5.91;100.00;102244.13;5050843;28;20536;-70
2022/11/30 05:35:33;;;;;;;25.52;11.15;;;;;;;5.91;100.00;102246.78;5050763;28;20032;-70
2022/11/30 05:37:59;;;;;;;23.25;11.52;;;;;;;5.86;100.00;102248.16;5050676;28;20036;-70
2022/11/30 05:40:26;;;;;;;22.35;10.70;;;;;;;5.87;100.00;102260.44;5049622;28;20139;-70
2022/11/30 05:42:55;;;;;;;20.85;10.05;;;;;;;5.80;100.00;102251.31;5050677;28;20029;-71
2022/11/30 05:45:21;;;;;;;23.83;12.27;;;;;;;5.76;100.00;102249.88;5050118;28;20036;-70
2022/11/30 05:47:46;;;;;;;23.92;13.00;;;;;;;5.78;100.00;102256.72;5050076;28;20033;-70
2022/11/30 05:50:12;;;;;;;21.40;11.27;;;;;;;5.76;100.00;102261.31;5050614;28;20039;-70
2022/11/30 05:52:37;;;;;;;23.30;11.57;;;;;;;5.76;100.00;102268.44;5050392;28;20029;-70
2022/11/30 05:55:03;;;;;;;27.40;11.82;;;;;;;5.75;100.00;102275.53;5049191;28;20064;-70
2022/11/30 05:57:28;;;;;;;24.58;10.55;;;;;;;5.73;100.00;102266.88;5050142;28;20133;-70
2022/11/30 05:59:53;;;;;;;22.55;12.10;;;;;;;5.72;100.00;102273.16;5049127;28;20125;-70
2022/11/30 06:02:19;;;;;;;19.15;9.63;;;;;;;5.65;100.00;102272.81;5050112;28;20091;-70
2022/11/30 06:04:44;;;;;;;21.20;11.48;;;;;;;5.58;100.00;102274.31;5049986;28;20029;-70
2022/11/30 06:07:10;;;;;;;21.95;10.52;;;;;;;5.54;100.00;102266.75;5049346;28;20509;-69
2022/11/30 06:09:39;;;;;;;22.70;10.65;;;;;;;5.53;100.00;102273.00;5049894;28;20612;-70
2022/11/30 06:12:05;;;;;;;19.60;10.48;;;;;;;5.51;100.00;102264.38;5049193;28;20033;-70
2022/11/30 06:14:30;;;;;;;25.10;11.48;;;;;;;5.52;100.00;102274.81;5050064;28;20523;-70
2022/11/30 06:16:56;;;;;;;19.13;10.30;;;;;;;5.49;100.00;102273.25;5049837;28;20094;-70
2022/11/30 06:19:21;;;;;;;23.85;11.23;;;;;;;5.53;100.00;102280.94;5049938;28;20028;-70
2022/11/30 06:21:46;;;;;;;21.65;9.77;;;;;;;5.48;100.00;102274.25;5049888;28;20028;-70
2022/11/30 06:24:12;;;;;;;22.15;10.82;;;;;;;5.52;100.00;102269.53;5049770;28;20064;-70
2022/11/30 06:26:37;;;;;;;20.05;10.85;;;;;;;5.43;100.00;102275.59;5049028;28;20033;-70
2022/11/30 06:29:02;;;;;;;21.67;12.40;;;;;;;5.43;100.00;102280.88;5049140;28;20031;-70
2022/11/30 06:31:30;;;;;;;22.58;10.90;;;;;;;5.41;100.00;102275.72;5049603;28;20064;-70
2022/11/30 06:33:56;;;;;;;21.35;10.43;;;;;;;5.38;100.00;102277.78;5048564;28;20036;-70
2022/11/30 06:36:22;;;;;;;18.48;9.23;;;;;;;5.34;100.00;102277.19;5049600;28;20064;-70
2022/11/30 06:38:47;;;;;;;20.85;10.02;;;;;;;5.32;100.00;102284.44;5049133;28;20052;-70
2022/11/30 06:41:13;;;;;;;23.77;11.45;;;;;;;5.32;100.00;102281.78;5049546;28;20613;-70
2022/11/30 06:43:39;;;;;;;23.48;11.13;;;;;;;5.30;100.00;102289.00;5049601;28;20385;-70
2022/11/30 06:46:05;;;;;;;20.05;8.93;;;;;;;5.21;100.00;102282.66;5048249;28;20037;-70
2022/11/30 06:48:31;;;;;;;19.40;9.68;;;;;;;5.17;100.00;102297.09;5049007;28;20118;-70
2022/11/30 06:50:57;;;;;;;21.33;10.00;;;;;;;5.09;100.00;102291.59;5049505;28;20492;-70
2022/11/30 06:53:23;;;;;;;22.17;10.60;;;;;;;5.04;100.00;102291.97;5049498;28;20025;-70
2022/11/30 06:55:48;;;;;;;20.35;10.32;;;;;;;4.99;100.00;102296.78;5049496;28;20029;-70
2022/11/30 06:58:13;;;;;;;20.80;10.82;;;;;;;4.91;100.00;102287.81;5049314;28;20086;-70
2022/11/30 07:00:39;;;;;;;21.42;11.07;;;;;;;4.83;100.00;102288.41;5049332;28;20111;-70
2022/11/30 07:03:05;;;;;;;22.02;10.85;;;;;;;4.82;100.00;102290.22;5049322;28;20033;-70
2022/11/30 07:05:40;;;;;;;22.60;11.13;;;;;;;4.80;100.00;102292.16;5048094;28;20040;-70
2022/11/30 07:08:05;;;;;;;24.30;10.20;;;;;;;4.77;100.00;102294.22;5048667;28;20528;-70
2022/11/30 07:10:31;;;;;;;20.88;10.25;;;;;;;4.73;100.00;102304.16;5048745;28;20116;-70
2022/11/30 07:12:56;;;;;;;24.58;10.52;;;;;;;4.60;100.00;102299.00;5049318;28;20028;-70
2022/11/30 07:15:21;;;;;;;21.70;10.98;;;;;;;4.52;100.00;102290.03;5047202;28;20037;-73
2022/11/30 07:17:47;;;;;;;25.50;12.02;;;;;;;4.59;100.00;102312.38;5047945;28;20473;-70
2022/11/30 07:20:12;;;;;;;23.45;11.88;;;;;;;4.60;100.00;102311.41;5047826;28;20445;-70
2022/11/30 07:22:38;;;;;;;25.88;11.70;;;;;;;4.62;100.00;102320.03;5049005;28;20179;-70
2022/11/30 07:27:47;;;;;;;28.20;13.52;;;;;;;4.72;100.00;102326.28;5053098;28;20052;-70
2022/11/30 07:30:13;;;;;;;33.42;15.98;;;;;;;4.71;100.00;102316.66;5052767;28;20025;-69
2022/11/30 07:32:38;;;;;;;26.10;10.30;;;;;;;4.75;100.00;102323.41;5052725;28;20107;-70
2022/11/30 07:35:03;;;;;;;24.20;10.35;;;;;;;4.76;100.00;102337.44;5052858;28;20040;-69
2022/11/30 07:37:29;;;;;;;26.27;11.52;;;;;;;4.77;100.00;102339.13;5052778;28;20029;-70
2022/11/30 07:39:54;;;;;;;25.80;11.73;;;;;;;4.77;100.00;102334.69;5052991;28;20051;-70
2022/11/30 07:42:21;;;;;;;27.00;12.50;;;;;;;4.75;100.00;102333.97;5052476;28;20036;-70
2022/11/30 07:44:47;;;;;;;23.15;10.80;;;;;;;4.73;100.00;102338.53;5052947;28;20025;-70
2022/11/30 07:47:12;;;;;;;29.33;14.77;;;;;;;4.70;100.00;102332.66;5052767;28;20021;-70
2022/11/30 07:49:38;;;;;;;34.25;14.38;;;;;;;4.76;100.00;102340.91;5052793;28;20037;-70
2022/11/30 07:52:04;;;;;;;25.73;12.00;;;;;;;4.77;100.00;102342.63;5052643;28;20482;-70
2022/11/30 07:54:29;;;;;;;23.15;11.23;;;;;;;4.77;100.00;102342.63;5052437;28;20033;-64
2022/11/30 07:56:55;;;;;;;23.92;11.02;;;;;;;4.83;100.00;102333.34;5044832;28;20037;-69
2022/11/30 07:59:20;;;;;;;23.83;13.05;;;;;;;4.92;100.00;102339.69;5046771;28;20113;-70
2022/11/30 08:01:46;;;;;;;23.42;11.70;;;;;;;4.99;100.00;102339.09;5046574;28;20103;-73
2022/11/30 08:04:12;;;;;;;24.85;11.45;;;;;;;5.05;100.00;102335.94;5046323;28;20033;-74
2022/11/30 08:06:38;;;;;;;28.27;14.90;;;;;;;5.14;100.00;102336.19;5046201;28;20475;-73
2022/11/30 08:09:06;;;;;;;25.38;12.80;;;;;;;5.26;100.00;102357.16;5048034;28;20040;-73
2022/11/30 08:11:33;;;;;;;26.58;12.88;;;;;;;5.33;100.00;102354.03;5051504;28;20032;-72
2022/11/30 08:13:59;;;;;;;27.85;13.48;;;;;;;5.40;100.00;102358.72;5051822;28;20033;-72
2022/11/30 08:16:27;;;;;;;24.92;13.52;;;;;;;5.46;100.00;102358.19;5052095;28;20025;-74
2022/11/30 08:18:55;;;;;;;26.95;13.20;;;;;;;5.57;100.00;102367.06;5052266;28;20074;-71
2022/11/30 08:21:21;;;;;;;27.63;14.32;;;;;;;5.66;100.00;102363.66;5052273;28;20503;-72
2022/11/30 08:23:52;;;;;;;23.17;12.02;;;;;;;5.72;100.00;102369.28;5051920;28;20051;-72
2022/11/30 08:26:20;;;;;;;25.05;12.52;;;;;;;5.75;100.00;102365.53;5052056;28;20035;-72
2022/11/30 08:28:48;;;;;;;29.83;15.38;;;;;;;5.82;100.00;102374.66;5052115;28;20025;-71
2022/11/30 08:31:18;;;;;;;28.75;15.07;;;;;;;5.85;100.00;102366.44;5052058;28;20052;-71
2022/11/30 08:33:44;;;;;;;28.35;14.48;;;;;;;5.89;100.00;102374.97;5051093;28;20029;-71
2022/11/30 08:36:20;;;;;;;28.48;14.32;;;;;;;5.92;100.00;102369.41;5050199;28;20033;-71
2022/11/30 08:38:46;;;;;;;29.48;13.18;;;;;;;5.92;100.00;102380.00;5051410;28;20136;-71
2022/11/30 08:41:14;;;;;;;27.33;13.15;;;;;;;5.91;100.00;102389.75;5051873;28;20094;-72
2022/11/30 08:43:40;;;;;;;31.52;14.18;;;;;;;5.88;100.00;102387.38;5051624;28;20055;-71
2022/11/30 08:46:07;;;;;;;26.70;13.60;;;;;;;5.92;100.00;102395.88;5051725;28;20036;-71
2022/11/30 08:48:34;;;;;;;32.20;15.05;;;;;;;5.92;100.00;102396.75;5051753;28;20041;-72
2022/11/30 08:51:04;;;;;;;27.13;13.70;;;;;;;5.91;100.00;102391.56;5050286;28;20462;-72
2022/11/30 08:53:30;;;;;;;37.47;16.48;;;;;;;5.90;100.00;102395.19;5051339;28;20687;-72
2022/11/30 08:56:04;;;;;;;28.83;15.90;;;;;;;5.90;100.00;102403.16;5051495;28;20036;-71
2022/11/30 08:58:33;;;;;;;27.10;14.15;;;;;;;5.88;100.00;102400.63;5051541;28;20033;-75
2022/11/30 09:01:05;;;;;;;28.88;15.07;;;;;;;5.86;100.00;102397.25;5051435;28;21061;-71
2022/11/30 09:03:31;;;;;;;30.40;16.30;;;;;;;5.81;100.00;102391.50;5050103;28;20056;-72
2022/11/30 09:06:05;;;;;;;30.90;16.52;;;;;;;5.85;100.00;102397.38;5051274;28;20396;-71
2022/11/30 09:08:31;;;;;;;32.83;16.23;;;;;;;5.90;100.00;102395.19;5049994;28;20044;-72
2022/11/30 09:10:56;;;;;;;31.58;15.60;;;;;;;5.99;100.00;102396.25;5050948;28;20036;-71
2022/11/30 09:13:21;;;;;;;31.75;15.35;;;;;;;6.15;100.00;102404.59;5050775;28;20116;-72
2022/11/30 09:15:53;;;;;;;28.08;15.85;;;;;;;6.26;100.00;102398.38;5051004;28;20078;-74
2022/11/30 09:18:19;;;;;;;32.70;16.55;;;;;;;6.28;100.00;102396.44;5051078;28;20460;-71
2022/11/30 09:20:44;;;;;;;31.08;18.33;;;;;;;6.39;100.00;102411.44;5049703;28;20070;-70
2022/11/30 09:23:09;;;;;;;34.35;18.80;;;;;;;6.48;100.00;102410.66;5050961;28;20028;-69
2022/11/30 09:25:35;;;;;;;31.83;16.23;;;;;;;6.55;100.00;102407.38;5050983;28;20057;-70
2022/11/30 09:28:00;;;;;;;33.47;17.33;;;;;;;6.61;100.00;102411.28;5051052;28;20075;-73
2022/11/30 09:30:25;;;;;;;34.08;18.17;;;;;;;6.64;100.00;102418.13;5050959;28;20372;-72
2022/11/30 09:32:51;;;;;;;30.77;16.98;;;;;;;6.66;100.00;102417.03;5050874;28;20123;-71
2022/11/30 09:35:16;;;;;;;33.72;18.00;;;;;;;6.67;100.00;102417.88;5049321;28;20420;-72
2022/11/30 09:37:41;;;;;;;39.70;16.67;;;;;;;6.69;100.00;102413.28;5050802;28;20479;-71
2022/11/30 09:40:08;;;;;;;34.00;17.08;;;;;;;6.69;100.00;102414.13;5050838;28;20013;-72
2022/11/30 09:42:53;;;;;;;31.63;16.45;;;;;;;6.76;100.00;102412.63;5050664;28;20496;-72
2022/11/30 09:45:24;;;;;;;33.47;16.83;;;;;;;6.80;100.00;102414.03;5050113;28;20025;-70
2022/11/30 09:48:11;;;;;;;30.50;15.90;;;;;;;6.75;100.00;102399.47;5050385;28;20036;-71
2022/11/30 09:50:42;;;;;;;30.88;15.35;;;;;;;6.79;100.00;102406.22;5050602;28;20027;-70
2022/11/30 09:53:19;;;;;;;31.98;15.50;;;;;;;6.83;100.00;102404.97;5050804;28;20427;-72
2022/11/30 09:55:45;;;;;;;27.73;13.32;;;;;;;6.87;100.00;102413.50;5050429;28;20028;-72
2022/11/30 09:58:26;;;;;;;29.60;15.43;;;;;;;6.89;100.00;102406.22;5050444;28;20029;-72
2022/11/30 10:00:51;;;;;;;28.38;14.82;;;;;;;6.96;100.00;102410.03;5050615;28;20020;-72
2022/11/30 10:03:20;;;;;;;32.88;15.45;;;;;;;6.95;100.00;102403.91;5050404;28;20035;-71
2022/11/30 10:05:48;;;;;;;27.23;14.15;;;;;;;6.96;100.00;102407.38;5046811;28;20476;-67
2022/11/30 10:08:22;;;;;;;29.75;15.40;;;;;;;6.95;100.00;102413.66;5043735;28;20150;-69
2022/11/30 10:10:59;;;;;;;28.80;16.23;;;;;;;6.94;100.00;102404.00;5042462;28;20029;-69
2022/11/30 10:13:57;;;;;;;30.45;16.15;;;;;;;6.95;100.00;102405.72;5043825;28;20123;-67
2022/11/30 10:17:10;;;;;;;29.38;13.98;;;;;;;6.96;100.00;102408.22;5042867;28;20108;-67
2022/11/30 10:20:00;;;;;;;30.48;15.38;;;;;;;7.00;100.00;102409.63;5049802;28;20052;-70
2022/11/30 10:22:33;;;;;;;27.40;13.82;;;;;;;6.98;100.00;102402.78;5066903;28;20224;-68
2022/11/30 10:25:19;;;;;;;29.73;16.40;;;;;;;6.99;100.00;102393.84;5050914;28;20048;-69
2022/11/30 10:28:10;;;;;;;28.20;14.23;;;;;;;6.99;100.00;102410.59;5049479;28;20025;-69
2022/11/30 10:30:36;;;;;;;31.47;17.57;;;;;;;6.98;100.00;102395.66;5032015;28;20039;-69
2022/11/30 10:33:39;;;;;;;30.15;15.73;;;;;;;6.97;100.00;102398.47;5049866;28;20363;-69
2022/11/30 10:36:11;;;;;;;34.00;16.98;;;;;;;6.97;100.00;102401.13;5048316;28;20045;-69
2022/11/30 10:38:49;;;;;;;29.48;13.43;;;;;;;6.94;100.00;102388.97;5049515;28;20139;-66
2022/11/30 10:41:40;;;;;;;31.80;15.52;;;;;;;6.96;100.00;102408.22;5049746;28;20032;-66
2022/11/30 10:44:13;;;;;;;33.15;18.15;;;;;;;6.89;100.00;102404.44;5049683;28;20082;-67
2022/11/30 10:46:51;;;;;;;30.40;16.40;;;;;;;6.84;100.00;102396.06;5048178;28;20037;-67
2022/11/30 10:49:18;;;;;;;28.90;13.65;;;;;;;6.79;100.00;102401.75;5049552;28;20025;-66
2022/11/30 10:51:50;;;;;;;32.92;15.10;;;;;;;6.70;100.00;102391.09;5049463;28;20116;-66
2022/11/30 10:54:18;;;;;;;31.88;15.68;;;;;;;6.66;100.00;102389.69;5049469;28;20495;-66
2022/11/30 10:56:45;;;;;;;31.42;15.90;;;;;;;6.66;100.00;102389.69;5049440;28;20460;-66
2022/11/30 10:59:24;;;;;;;33.60;15.32;;;;;;;6.70;100.00;102397.22;5048893;28;20032;-66
2022/11/30 11:01:51;;;;;;;32.28;14.15;;;;;;;6.69;100.00;102397.38;5049571;28;20032;-66
2022/11/30 11:04:26;;;;;;;32.22;16.70;;;;;;;6.69;100.00;102389.41;5049487;28;20487;-67
2022/11/30 11:06:54;;;;;;;31.83;15.85;;;;;;;6.71;100.00;102375.06;5050009;28;20029;-67
2022/11/30 11:09:29;;;;;;;30.60;15.57;;;;;;;6.81;100.00;102383.03;5049313;28;20472;-67
2022/11/30 11:11:57;;;;;;;28.77;17.00;;;;;;;6.82;100.00;102391.84;5048048;28;20831;-67
2022/11/30 11:14:25;;;;;;;34.75;15.95;;;;;;;6.80;100.00;102386.66;5049343;28;20033;-68
2022/11/30 11:16:57;;;;;;;30.95;16.20;;;;;;;6.80;100.00;102381.38;5049029;28;20067;-68